Time;durP1;ratioP1;P1;durP2;ratioP2;P2;SDS_P1;SDS_P2;PMS_P1;PMS_P2;Temp;Humidity;BMP_temperature;BMP_pressure;BME280_temperature;BME280_humidity;BME280_pressure;Samples;Min_cycle;Max_cycle;Signal;HPM_P1;HPM_P2
2021/05/27 00:00:12;;;;;;;7.90;1.70;;;;;;;9.28;100.00;96248.84;4981150;28;20442;-92
2021/05/27 00:02:38;;;;;;;1.40;1.10;;;;;;;9.24;100.00;96253.16;4980880;28;20456;-92
2021/05/27 00:05:07;;;;;;;3.03;1.70;;;;;;;9.23;100.00;96251.69;4982851;28;20476;-91
2021/05/27 00:07:33;;;;;;;1.63;1.27;;;;;;;9.22;100.00;96250.25;4983013;28;20825;-91
2021/05/27 00:10:00;;;;;;;1.57;1.47;;;;;;;9.21;100.00;96256.91;4986009;28;20443;-93
2021/05/27 00:12:26;;;;;;;2.00;1.43;;;;;;;9.19;100.00;96257.44;4997749;28;20438;-91
2021/05/27 00:14:52;;;;;;;3.30;1.60;;;;;;;9.14;100.00;96266.38;4981105;28;20458;-91
2021/05/27 00:17:19;;;;;;;2.97;1.40;;;;;;;9.12;100.00;96261.53;4982828;28;20944;-92
2021/05/27 00:19:46;;;;;;;2.40;1.37;;;;;;;9.20;100.00;96253.50;4980004;28;20432;-91
2021/05/27 00:22:13;;;;;;;2.10;1.47;;;;;;;9.25;100.00;96255.28;4980630;28;20481;-91
2021/05/27 00:24:39;;;;;;;3.40;1.90;;;;;;;9.33;100.00;96252.63;4980445;28;20440;-92
2021/05/27 00:27:06;;;;;;;1.70;1.50;;;;;;;9.34;100.00;96256.75;4981251;28;20449;-92
2021/05/27 00:29:33;;;;;;;1.80;1.70;;;;;;;9.38;100.00;96251.75;4980916;28;20454;-92
2021/05/27 00:31:59;;;;;;;2.70;1.60;;;;;;;9.29;100.00;96249.56;4980888;28;20515;-92
2021/05/27 00:34:26;;;;;;;1.90;1.23;;;;;;;9.24;100.00;96259.22;4979707;28;20857;-92
2021/05/27 00:36:52;;;;;;;2.33;1.80;;;;;;;9.26;99.95;96256.75;4982228;28;20460;-92
2021/05/27 00:39:19;;;;;;;1.43;1.33;;;;;;;9.26;100.00;96256.75;4998957;28;20430;-92
2021/05/27 00:41:46;;;;;;;2.00;1.70;;;;;;;9.22;100.00;96250.25;4998823;28;20500;-92
2021/05/27 00:44:19;;;;;;;1.63;1.53;;;;;;;9.23;100.00;96260.50;4998920;28;20473;-92
2021/05/27 00:46:45;;;;;;;5.30;1.77;;;;;;;9.24;100.00;96255.84;4998826;28;20488;-92
2021/05/27 00:49:12;;;;;;;1.63;1.53;;;;;;;9.26;99.83;96264.81;5000140;28;20415;-91
2021/05/27 00:51:38;;;;;;;5.87;2.00;;;;;;;9.21;100.00;96259.59;5002594;28;20436;-91
2021/05/27 00:54:05;;;;;;;5.10;1.50;;;;;;;9.13;100.00;96254.91;5002120;28;20457;-91
2021/05/27 00:56:32;;;;;;;1.40;1.20;;;;;;;9.19;100.00;96262.09;4988485;28;20465;-91
2021/05/27 00:58:59;;;;;;;1.60;1.50;;;;;;;9.11;100.00;96264.75;4984975;28;20898;-92
2021/05/27 01:01:25;;;;;;;4.80;1.47;;;;;;;9.15;100.00;96262.44;4986936;28;20436;-91
2021/05/27 01:03:51;;;;;;;1.37;1.23;;;;;;;9.09;100.00;96259.19;4984005;28;20485;-92
2021/05/27 01:06:18;;;;;;;3.53;2.27;;;;;;;9.09;100.00;96259.19;4984675;28;20438;-91
2021/05/27 01:08:44;;;;;;;2.13;1.50;;;;;;;9.01;100.00;96258.44;4984309;28;20459;-91
2021/05/27 01:11:10;;;;;;;2.10;1.90;;;;;;;9.04;100.00;96262.75;4984088;28;20866;-91
2021/05/27 01:13:37;;;;;;;4.20;2.00;;;;;;;9.06;100.00;96268.31;4995188;28;20436;-91
2021/05/27 01:16:03;;;;;;;1.43;1.33;;;;;;;9.04;100.00;96262.75;5001893;28;20515;-92
2021/05/27 01:18:29;;;;;;;3.73;1.67;;;;;;;9.00;100.00;96262.38;5002132;28;20440;-91
2021/05/27 01:20:57;;;;;;;3.07;1.70;;;;;;;8.93;100.00;96271.13;5002171;28;20462;-92
2021/05/27 01:23:26;;;;;;;2.00;1.60;;;;;;;8.97;100.00;96268.81;5001860;28;20521;-93
2021/05/27 01:25:54;;;;;;;3.23;1.80;;;;;;;9.01;100.00;96261.13;5002072;28;20411;-92
2021/05/27 01:28:21;;;;;;;2.13;1.90;;;;;;;9.01;100.00;96259.16;5001594;28;20408;-92
2021/05/27 01:30:48;;;;;;;1.73;1.57;;;;;;;8.92;100.00;96267.72;4993062;28;20934;-92
2021/05/27 01:33:16;;;;;;;3.57;2.00;;;;;;;8.90;100.00;96270.22;4982891;28;20466;-91
2021/05/27 01:35:43;;;;;;;2.77;2.20;;;;;;;8.90;100.00;96272.91;4982598;28;20478;-91
2021/05/27 01:38:14;;;;;;;1.70;1.50;;;;;;;8.99;100.00;96267.03;4983009;28;20424;-91
2021/05/27 01:40:42;;;;;;;2.33;1.80;;;;;;;8.98;100.00;96271.00;4983976;28;20531;-91
2021/05/27 01:43:08;;;;;;;2.10;1.90;;;;;;;8.92;100.00;96275.06;4982118;28;20456;-92
2021/05/27 01:45:35;;;;;;;3.70;1.93;;;;;;;8.88;100.00;96272.72;4982151;28;20448;-92
2021/05/27 01:48:01;;;;;;;3.00;1.80;;;;;;;8.88;100.00;96274.69;4982726;28;20448;-91
2021/05/27 01:50:28;;;;;;;2.37;1.70;;;;;;;8.79;100.00;96265.16;4982544;28;20438;-91
2021/05/27 01:53:00;;;;;;;1.70;1.40;;;;;;;8.81;100.00;96268.00;4982813;28;20425;-91
2021/05/27 01:55:28;;;;;;;3.10;1.70;;;;;;;8.73;100.00;96269.97;4982174;28;20879;-91
2021/05/27 01:57:56;;;;;;;3.70;2.00;;;;;;;8.77;100.00;96264.25;4982692;28;20499;-91
2021/05/27 02:00:23;;;;;;;3.07;2.03;;;;;;;8.77;100.00;96275.69;4982960;28;20452;-91
2021/05/27 02:02:49;;;;;;;1.67;1.57;;;;;;;8.77;100.00;96264.94;4981924;28;20520;-93
2021/05/27 02:05:15;;;;;;;1.83;1.70;;;;;;;8.74;100.00;96270.69;4981438;28;20428;-92
2021/05/27 02:07:42;;;;;;;3.10;1.93;;;;;;;8.75;100.00;96269.41;4981076;28;20446;-92
2021/05/27 02:10:10;;;;;;;2.93;1.90;;;;;;;8.78;100.00;96271.75;4982009;28;20425;-92
2021/05/27 02:12:37;;;;;;;1.97;1.60;;;;;;;8.77;100.00;96273.00;4981075;28;20492;-92
2021/05/27 02:15:05;;;;;;;2.20;2.00;;;;;;;8.76;100.00;96276.25;4981091;28;20511;-92
2021/05/27 02:17:31;;;;;;;2.00;1.80;;;;;;;8.73;100.00;96282.69;4980412;28;20492;-92
2021/05/27 02:19:57;;;;;;;1.83;1.70;;;;;;;8.77;100.00;96277.69;4980845;28;20481;-93
2021/05/27 02:22:24;;;;;;;1.90;1.70;;;;;;;8.80;100.00;96276.63;4982072;28;20408;-92
2021/05/27 02:24:50;;;;;;;5.30;2.30;;;;;;;8.80;100.00;96277.31;4980883;28;20424;-93
2021/05/27 02:27:16;;;;;;;2.47;2.23;;;;;;;8.78;100.00;96276.41;4980808;28;20412;-94
2021/05/27 02:29:42;;;;;;;2.03;1.70;;;;;;;8.83;100.00;96280.94;4981022;28;20460;-92
2021/05/27 02:32:09;;;;;;;2.37;1.83;;;;;;;8.83;100.00;96280.94;4980615;28;20510;-93
2021/05/27 02:34:35;;;;;;;2.60;2.37;;;;;;;8.82;100.00;96284.88;4980829;28;20553;-93
2021/05/27 02:37:02;;;;;;;2.87;2.23;;;;;;;8.78;100.00;96277.16;4980524;28;20562;-93
2021/05/27 02:39:28;;;;;;;2.33;1.57;;;;;;;8.77;100.00;96288.44;4981394;28;20438;-92
2021/05/27 02:41:54;;;;;;;4.17;2.10;;;;;;;8.71;100.00;96282.50;4980299;28;20818;-93
2021/05/27 02:44:20;;;;;;;3.03;1.80;;;;;;;8.68;100.00;96275.50;4980680;28;20542;-92
2021/05/27 02:46:46;;;;;;;1.93;1.63;;;;;;;8.74;100.00;96292.19;4980737;28;20507;-93
2021/05/27 02:49:13;;;;;;;4.07;1.70;;;;;;;8.80;100.00;96290.78;4980086;28;20483;-93
2021/05/27 02:51:39;;;;;;;3.03;2.30;;;;;;;8.78;100.00;96293.28;4980308;28;20434;-91
2021/05/27 02:54:06;;;;;;;2.27;1.90;;;;;;;8.81;100.00;96288.81;4980603;28;20592;-92
2021/05/27 02:56:32;;;;;;;1.73;1.57;;;;;;;8.81;100.00;96291.50;4979803;28;20452;-92
2021/05/27 02:58:58;;;;;;;2.70;2.00;;;;;;;8.85;100.00;96291.91;4979865;28;20413;-93
2021/05/27 03:01:25;;;;;;;2.53;1.70;;;;;;;8.81;100.00;96294.19;4981340;28;20437;-92
2021/05/27 03:03:51;;;;;;;3.90;1.73;;;;;;;8.82;100.00;96290.25;4983260;28;20525;-92
2021/05/27 03:06:18;;;;;;;3.30;2.20;;;;;;;8.77;100.00;96293.84;4984278;28;20482;-92
2021/05/27 03:08:44;;;;;;;1.83;1.70;;;;;;;8.79;100.00;96288.63;4983301;28;20871;-92
2021/05/27 03:11:11;;;;;;;2.10;1.70;;;;;;;8.83;100.00;96292.44;4983478;28;20454;-92
2021/05/27 03:13:37;;;;;;;3.80;2.13;;;;;;;8.79;100.00;96285.94;4983174;28;20874;-92
2021/05/27 03:16:04;;;;;;;8.53;2.47;;;;;;;8.80;100.00;96288.09;4983461;28;20547;-92
2021/05/27 03:18:30;;;;;;;3.77;2.33;;;;;;;8.76;100.00;96287.72;4984918;28;20492;-92
2021/05/27 03:20:57;;;;;;;2.80;2.17;;;;;;;8.83;100.00;96286.34;4983178;28;20400;-92
2021/05/27 03:23:24;;;;;;;1.87;1.70;;;;;;;8.77;100.00;96277.69;4985221;28;20516;-91
2021/05/27 03:25:51;;;;;;;2.27;2.00;;;;;;;8.75;100.00;96277.47;4986084;28;20442;-92
2021/05/27 03:28:17;;;;;;;2.30;1.53;;;;;;;8.71;100.00;96283.19;4984199;28;20477;-92
2021/05/27 03:30:44;;;;;;;2.33;1.73;;;;;;;8.68;100.00;96278.88;4983012;28;20517;-91
2021/05/27 03:33:10;;;;;;;2.50;2.30;;;;;;;8.70;100.00;96281.78;4981815;28;20454;-91
2021/05/27 03:35:37;;;;;;;2.40;1.90;;;;;;;8.72;100.00;96273.88;4983997;28;20481;-93
2021/05/27 03:38:03;;;;;;;4.60;2.23;;;;;;;8.69;100.00;96272.25;4983733;28;20487;-92
2021/05/27 03:40:31;;;;;;;3.73;1.70;;;;;;;8.67;100.00;96271.34;4984139;28;20428;-92
2021/05/27 03:42:58;;;;;;;5.47;2.23;;;;;;;8.78;100.00;96268.34;4983230;28;20945;-92
2021/05/27 03:45:26;;;;;;;2.23;1.87;;;;;;;9.02;100.00;96281.41;4987847;28;20424;-93
2021/05/27 03:47:53;;;;;;;2.30;1.97;;;;;;;9.14;100.00;96288.66;4996671;28;20469;-91
2021/05/27 03:50:22;;;;;;;2.00;1.80;;;;;;;9.30;100.00;96286.75;4999237;28;20436;-90
2021/05/27 03:52:48;;;;;;;2.20;1.70;;;;;;;9.70;100.00;96292.44;4999156;28;20454;-90
2021/05/27 03:55:16;;;;;;;2.53;2.00;;;;;;;10.09;98.70;96283.13;4999088;28;20528;-91
2021/05/27 03:57:44;;;;;;;2.30;1.80;;;;;;;10.52;96.31;96285.69;4999333;28;20446;-91
2021/05/27 04:00:43;;;;;;;2.70;1.70;;;;;;;10.85;92.81;96294.63;4999557;28;20404;-91
2021/05/27 04:03:09;;;;;;;2.83;1.40;;;;;;;11.36;90.20;96288.91;4998602;28;20443;-92
2021/05/27 04:08:20;;;;;;;6.83;1.43;;;;;;;12.17;84.58;96288.28;4991201;28;20395;-93
2021/05/27 04:10:47;;;;;;;1.90;1.33;;;;;;;12.39;82.73;96281.25;4983152;28;20454;-92
2021/05/27 04:13:14;;;;;;;2.00;1.50;;;;;;;12.83;80.65;96284.09;4983674;28;20476;-92
2021/05/27 04:15:42;;;;;;;1.90;1.60;;;;;;;12.83;79.95;96276.69;4981192;28;20564;-92
2021/05/27 04:18:10;;;;;;;3.33;1.63;;;;;;;13.14;78.71;96284.53;4980886;28;20985;-92
2021/05/27 04:20:39;;;;;;;3.47;2.37;;;;;;;13.41;77.81;96283.28;4993266;28;20453;-92
2021/05/27 04:23:07;;;;;;;4.00;1.70;;;;;;;13.69;76.50;96287.47;4994199;28;20485;-92
2021/05/27 04:25:33;;;;;;;3.60;1.63;;;;;;;13.98;76.22;96295.03;4993360;28;20469;-91
2021/05/27 04:28:00;;;;;;;1.50;1.20;;;;;;;14.11;74.40;96303.53;4994654;28;20473;-92
2021/05/27 04:30:29;;;;;;;4.53;1.60;;;;;;;14.54;72.40;96307.41;4989055;28;20481;-92
2021/05/27 04:33:03;;;;;;;2.40;1.70;;;;;;;14.38;72.98;96304.22;4993818;28;20585;-92
2021/05/27 04:35:32;;;;;;;2.53;1.40;;;;;;;14.67;71.54;96304.28;4999768;28;20494;-92
2021/05/27 04:38:01;;;;;;;2.60;1.53;;;;;;;14.73;71.10;96304.03;4996741;28;20508;-93
2021/05/27 04:40:28;;;;;;;2.90;1.67;;;;;;;14.93;70.69;96310.94;4990367;28;20437;-93
2021/05/27 04:42:54;;;;;;;2.53;1.67;;;;;;;15.16;69.42;96311.22;4987456;28;20557;-92
2021/05/27 04:45:21;;;;;;;1.63;1.53;;;;;;;15.37;68.82;96314.09;4989504;28;21034;-92
2021/05/27 04:47:48;;;;;;;3.10;1.90;;;;;;;15.42;68.18;96315.78;4998723;28;20445;-92
2021/05/27 04:50:14;;;;;;;2.27;1.70;;;;;;;15.70;67.38;96321.78;4994371;28;20459;-93
2021/05/27 04:52:41;;;;;;;2.10;1.73;;;;;;;15.81;66.93;96327.38;4983530;28;20449;-93
2021/05/27 04:55:10;;;;;;;3.60;2.20;;;;;;;15.99;66.30;96325.91;4985233;28;20446;-93
2021/05/27 04:57:36;;;;;;;3.40;1.50;;;;;;;16.16;65.85;96335.16;4983493;28;20462;-93
2021/05/27 05:00:05;;;;;;;2.50;1.60;;;;;;;16.51;64.16;96336.88;4985286;28;20470;-93
2021/05/27 05:02:31;;;;;;;1.87;1.60;;;;;;;16.62;63.42;96349.19;4985456;28;20992;-93
2021/05/27 05:04:59;;;;;;;4.37;1.73;;;;;;;16.59;63.96;96336.75;4986502;28;20533;-92
2021/05/27 05:07:25;;;;;;;3.30;1.90;;;;;;;17.07;62.46;96341.91;4986321;28;20438;-93
2021/05/27 05:09:51;;;;;;;6.53;2.50;;;;;;;16.50;63.62;96345.66;4997648;28;20422;-94
2021/05/27 05:12:17;;;;;;;4.00;2.37;;;;;;;16.70;63.92;96351.72;4992075;28;20446;-92
2021/05/27 05:14:43;;;;;;;2.90;1.60;;;;;;;17.44;61.59;96351.13;4987672;28;20470;-94
2021/05/27 05:17:09;;;;;;;4.67;1.93;;;;;;;17.26;61.69;96355.41;4987968;28;20485;-92
2021/05/27 05:19:36;;;;;;;2.53;1.70;;;;;;;17.35;61.22;96353.91;4987067;28;20485;-93
2021/05/27 05:22:03;;;;;;;3.30;1.73;;;;;;;17.63;60.21;96356.44;4999700;28;20445;-92
2021/05/27 05:24:29;;;;;;;3.43;1.97;;;;;;;17.77;59.59;96358.59;5000951;28;20458;-92
2021/05/27 05:26:55;;;;;;;2.73;1.63;;;;;;;17.97;58.52;96357.84;4993604;28;20434;-94
2021/05/27 05:29:22;;;;;;;1.70;1.60;;;;;;;18.37;57.81;96365.03;4985455;28;20538;-93
2021/05/27 05:31:48;;;;;;;5.67;1.40;;;;;;;18.74;56.98;96373.38;4986069;28;20466;-93
2021/05/27 05:34:14;;;;;;;3.17;1.60;;;;;;;18.48;56.43;96369.09;4986214;28;20482;-93
2021/05/27 05:36:40;;;;;;;4.23;1.97;;;;;;;18.27;57.20;96378.09;4985343;28;20561;-93
2021/05/27 05:39:07;;;;;;;3.10;1.80;;;;;;;18.58;55.89;96375.88;4986213;28;20817;-93
2021/05/27 05:41:34;;;;;;;1.53;1.33;;;;;;;18.64;56.45;96394.66;4987401;28;20484;-93
2021/05/27 05:44:00;;;;;;;5.23;1.93;;;;;;;18.49;56.01;96386.91;4985013;28;20484;-92
2021/05/27 05:46:26;;;;;;;2.13;1.50;;;;;;;19.10;53.54;96396.69;4990965;28;20525;-92
2021/05/27 05:48:53;;;;;;;3.90;1.70;;;;;;;19.22;52.45;96389.88;4993487;28;20442;-92
2021/05/27 05:51:19;;;;;;;3.30;2.00;;;;;;;19.35;51.76;96390.56;4992082;28;20517;-94
2021/05/27 05:53:45;;;;;;;2.27;1.37;;;;;;;19.33;50.90;96390.44;4990879;28;20470;-92
2021/05/27 05:56:12;;;;;;;3.07;2.13;;;;;;;19.41;51.14;96388.91;4993485;28;20478;-93
2021/05/27 05:58:38;;;;;;;4.37;1.57;;;;;;;19.25;51.49;96385.22;4988441;28;20841;-91
2021/05/27 06:01:04;;;;;;;8.00;1.80;;;;;;;19.56;49.63;96393.84;4990255;28;20453;-93
2021/05/27 06:03:32;;;;;;;3.33;1.30;;;;;;;19.95;48.95;96396.69;4984959;28;20486;-93
2021/05/27 06:05:59;;;;;;;3.80;1.90;;;;;;;19.84;49.43;96391.25;4991659;28;21236;-93
2021/05/27 06:08:25;;;;;;;1.70;1.50;;;;;;;19.58;50.06;96396.69;4984643;28;20458;-93
2021/05/27 06:10:51;;;;;;;2.60;1.50;;;;;;;19.74;50.01;96397.59;4986268;28;20844;-93
2021/05/27 06:13:18;;;;;;;2.77;1.60;;;;;;;19.67;49.81;96397.88;4986229;28;20549;-93
2021/05/27 06:15:44;;;;;;;2.10;1.50;;;;;;;19.77;50.21;96401.16;4983740;28;20493;-93
2021/05/27 06:18:10;;;;;;;3.57;1.70;;;;;;;20.93;46.78;96407.97;4983727;28;20446;-93
2021/05/27 06:20:36;;;;;;;2.13;1.20;;;;;;;20.86;46.73;96411.75;4984079;28;20537;-93
2021/05/27 06:23:03;;;;;;;1.33;1.00;;;;;;;21.54;44.10;96408.97;4985239;28;20503;-93
2021/05/27 06:25:31;;;;;;;1.40;1.20;;;;;;;20.68;45.01;96412.22;4984712;28;20450;-93
2021/05/27 06:27:57;;;;;;;1.57;1.17;;;;;;;20.79;43.93;96416.19;4990774;28;20452;-92
2021/05/27 06:30:28;;;;;;;5.47;1.27;;;;;;;20.34;44.71;96415.91;4997489;28;20453;-93
2021/05/27 06:32:54;;;;;;;1.80;1.10;;;;;;;20.23;43.82;96417.38;4996925;28;20449;-93
2021/05/27 06:35:21;;;;;;;2.23;1.03;;;;;;;20.07;44.71;96415.78;4996881;28;20525;-93
2021/05/27 06:37:47;;;;;;;3.77;1.67;;;;;;;19.79;44.84;96423.19;4999386;28;20461;-93
2021/05/27 06:40:16;;;;;;;1.23;1.13;;;;;;;20.21;44.03;96424.78;4997809;28;20469;-92
2021/05/27 06:42:43;;;;;;;4.37;1.60;;;;;;;20.33;43.60;96428.19;4997571;28;20422;-93
2021/05/27 06:45:11;;;;;;;2.60;1.63;;;;;;;20.56;44.59;96427.34;4995109;28;20493;-93
2021/05/27 06:47:38;;;;;;;3.40;1.70;;;;;;;20.56;44.68;96425.31;4990380;28;20465;-93
2021/05/27 06:50:05;;;;;;;2.30;1.90;;;;;;;20.49;44.25;96431.78;4992198;28;20434;-93
2021/05/27 06:52:32;;;;;;;1.97;1.40;;;;;;;20.35;44.27;96420.09;4991088;28;20450;-93
2021/05/27 06:54:58;;;;;;;1.57;1.13;;;;;;;19.30;46.24;96424.47;4992931;28;20457;-93
2021/05/27 06:57:24;;;;;;;3.37;1.40;;;;;;;19.52;45.53;96418.25;4983644;28;20489;-94
2021/05/27 06:59:51;;;;;;;2.13;1.20;;;;;;;19.73;45.13;96420.13;4990538;28;20422;-93
2021/05/27 07:02:17;;;;;;;1.50;1.20;;;;;;;20.12;44.50;96423.63;4991897;28;20453;-93
2021/05/27 07:04:45;;;;;;;1.20;1.10;;;;;;;20.17;44.78;96425.25;4991538;28;20478;-93
2021/05/27 07:07:12;;;;;;;5.47;1.83;;;;;;;20.80;43.30;96428.59;4991059;28;20830;-93
2021/05/27 07:09:39;;;;;;;2.33;1.10;;;;;;;20.46;41.57;96426.78;4989407;28;20508;-93
2021/05/27 07:12:05;;;;;;;5.60;1.27;;;;;;;19.65;43.84;96423.09;4988786;28;20501;-93
2021/05/27 07:14:32;;;;;;;3.53;1.30;;;;;;;19.62;44.67;96429.06;4987324;28;20575;-92
2021/05/27 07:16:58;;;;;;;1.80;1.23;;;;;;;18.83;45.20;96426.53;4991693;28;20505;-92
2021/05/27 07:19:24;;;;;;;2.40;1.30;;;;;;;18.82;45.43;96416.91;4988009;28;20470;-93
2021/05/27 07:21:51;;;;;;;6.00;1.40;;;;;;;18.46;47.19;96413.41;4986656;28;20433;-93
2021/05/27 07:24:17;;;;;;;1.90;1.60;;;;;;;17.82;48.70;96421.06;4992606;28;20457;-92
2021/05/27 07:26:43;;;;;;;1.97;1.50;;;;;;;17.34;49.13;96418.66;4994102;28;20430;-93
2021/05/27 07:29:09;;;;;;;8.60;6.40;;;;;;;16.97;51.04;96417.59;4995192;28;20423;-92
2021/05/27 07:31:37;;;;;;;4.13;1.63;;;;;;;16.78;50.75;96421.13;4992962;28;20444;-93
2021/05/27 07:34:05;;;;;;;6.00;1.57;;;;;;;17.03;49.76;96418.00;4989187;28;20466;-92
2021/05/27 07:36:31;;;;;;;8.87;1.27;;;;;;;16.57;49.98;96415.63;4991527;28;20474;-92
2021/05/27 07:38:58;;;;;;;4.10;1.50;;;;;;;16.76;51.12;96423.69;4988836;28;20474;-93
2021/05/27 07:41:24;;;;;;;2.70;1.80;;;;;;;17.17;48.79;96423.66;4988422;28;20453;-92
2021/05/27 07:43:52;;;;;;;7.70;2.00;;;;;;;17.02;48.84;96417.28;4985763;28;20572;-92
2021/05/27 07:46:18;;;;;;;4.10;1.50;;;;;;;17.25;49.16;96424.91;4989148;28;20525;-92
2021/05/27 07:48:44;;;;;;;1.50;1.10;;;;;;;17.46;49.08;96418.72;4988638;28;20458;-92
2021/05/27 07:51:10;;;;;;;6.10;1.50;;;;;;;17.76;48.49;96420.66;4989336;28;20476;-92
2021/05/27 07:53:36;;;;;;;2.33;1.30;;;;;;;18.99;45.96;96432.94;4986394;28;20458;-92
2021/05/27 07:56:05;;;;;;;5.00;1.23;;;;;;;19.00;45.46;96423.44;4986541;28;20564;-93
2021/05/27 07:58:31;;;;;;;2.20;1.63;;;;;;;19.08;42.96;96423.91;4991062;28;20442;-94
2021/05/27 08:00:58;;;;;;;1.57;1.47;;;;;;;18.70;42.95;96419.66;4990664;28;20510;-93
2021/05/27 08:03:24;;;;;;;3.00;1.73;;;;;;;18.79;44.49;96429.03;4996322;28;20462;-94
2021/05/27 08:05:50;;;;;;;3.07;1.47;;;;;;;18.80;45.34;96422.97;4998058;28;20426;-93
2021/05/27 08:08:16;;;;;;;4.73;1.50;;;;;;;18.47;44.90;96433.97;4998025;28;20491;-92
2021/05/27 08:10:44;;;;;;;1.80;1.00;;;;;;;19.06;44.20;96437.47;4998289;28;20434;-94
2021/05/27 08:13:13;;;;;;;3.83;1.20;;;;;;;19.10;43.96;96435.69;4998144;28;20469;-93
2021/05/27 08:15:39;;;;;;;1.13;1.03;;;;;;;19.15;43.52;96437.34;4991494;28;20488;-92
2021/05/27 08:18:06;;;;;;;3.50;1.60;;;;;;;19.57;42.19;96441.13;4987169;28;20512;-92
2021/05/27 08:20:32;;;;;;;3.90;2.00;;;;;;;19.33;42.53;96439.72;4992677;28;20435;-92
2021/05/27 08:22:59;;;;;;;2.80;1.50;;;;;;;18.97;42.88;96441.03;4989352;28;20995;-93
2021/05/27 08:25:25;;;;;;;4.80;1.80;;;;;;;18.26;43.39;96425.84;4988782;28;20453;-93
2021/05/27 08:27:53;;;;;;;3.13;1.37;;;;;;;17.94;45.60;96437.50;4988920;28;20496;-93
2021/05/27 08:30:22;;;;;;;3.30;2.03;;;;;;;17.55;46.61;96426.16;4992497;28;20513;-93
2021/05/27 08:32:49;;;;;;;4.33;1.53;;;;;;;17.53;46.30;96426.00;4987365;28;20457;-93
2021/05/27 08:35:15;;;;;;;3.73;1.50;;;;;;;16.91;46.78;96420.66;4987963;28;20442;-93
2021/05/27 08:37:42;;;;;;;3.20;1.20;;;;;;;17.27;47.09;96422.28;4990226;28;20481;-92
2021/05/27 08:40:09;;;;;;;3.10;1.50;;;;;;;17.47;46.34;96423.63;4993274;28;20437;-94
2021/05/27 08:42:36;;;;;;;2.23;1.50;;;;;;;17.23;47.21;96426.78;4994089;28;20460;-93
2021/05/27 08:45:04;;;;;;;2.43;1.30;;;;;;;17.19;47.67;96429.97;4989452;28;20477;-93
2021/05/27 08:47:32;;;;;;;5.77;2.37;;;;;;;16.92;48.06;96419.31;4991268;28;20437;-92
2021/05/27 08:50:00;;;;;;;2.60;2.10;;;;;;;16.40;48.82;96432.13;4991124;28;20413;-92
2021/05/27 08:52:27;;;;;;;1.83;1.70;;;;;;;16.41;48.78;96433.56;4991309;28;20437;-93
2021/05/27 08:54:53;;;;;;;1.40;1.20;;;;;;;16.74;47.18;96429.03;4986632;28;20464;-93
2021/05/27 08:57:19;;;;;;;1.67;1.20;;;;;;;17.14;46.77;96422.81;4990061;28;20456;-93
2021/05/27 08:59:45;;;;;;;3.20;1.30;;;;;;;17.36;46.93;96435.16;4995375;28;20437;-93
2021/05/27 09:02:12;;;;;;;1.93;1.30;;;;;;;17.13;45.97;96433.00;4982042;28;20520;-93
2021/05/27 09:04:40;;;;;;;2.87;1.37;;;;;;;16.85;46.28;96427.69;4981835;28;20592;-93
2021/05/27 09:07:07;;;;;;;3.40;1.40;;;;;;;16.90;45.84;96427.38;4980220;28;20521;-92
2021/05/27 09:09:51;;;;;;;1.80;1.37;;;;;;;17.29;45.83;96427.19;4980643;28;20454;-93
2021/05/27 09:12:28;;;;;;;2.10;1.63;;;;;;;17.58;45.74;96425.69;4987048;28;20473;-92
2021/05/27 09:14:54;;;;;;;1.67;1.00;;;;;;;17.80;46.44;96425.69;4987994;28;20450;-92
2021/05/27 09:17:20;;;;;;;2.20;1.43;;;;;;;17.84;44.78;96432.13;4993598;28;20508;-93
2021/05/27 09:20:14;;;;;;;2.33;1.40;;;;;;;17.78;44.47;96437.19;4989184;28;20442;-91
2021/05/27 09:22:40;;;;;;;2.67;1.17;;;;;;;18.04;45.08;96435.41;4994166;28;20465;-92
2021/05/27 09:25:08;;;;;;;2.67;1.73;;;;;;;18.39;44.11;96446.41;4997459;28;20426;-92
2021/05/27 09:27:45;;;;;;;2.47;1.13;;;;;;;18.46;44.37;96437.28;4997823;28;20441;-92
2021/05/27 09:30:12;;;;;;;2.40;1.27;;;;;;;18.39;43.67;96443.66;4998467;28;20437;-92
2021/05/27 09:32:39;;;;;;;2.87;1.30;;;;;;;17.98;43.71;96438.44;4997095;28;20431;-92
2021/05/27 09:35:10;;;;;;;3.03;1.40;;;;;;;17.37;44.53;96438.59;4995371;28;20433;-92
2021/05/27 09:37:37;;;;;;;2.83;1.70;;;;;;;16.76;46.20;96450.25;4996558;28;20482;-92
